Time;durP1;ratioP1;P1;durP2;ratioP2;P2;SDS_P1;SDS_P2;PMS_P1;PMS_P2;Temp;Humidity;BMP_temperature;BMP_pressure;BME280_temperature;BME280_humidity;BME280_pressure;Samples;Min_cycle;Max_cycle;Signal;HPM_P1;HPM_P2
2023/08/25 00:02:01;;;;;;;1.67;0.65;;;26.40;87.60;;;;;;6337015;22;20196;-84
2023/08/25 00:04:32;;;;;;;0.57;0.57;;;26.40;87.20;;;;;;6337138;22;20243;-84
2023/08/25 00:07:00;;;;;;;0.30;0.30;;;26.40;86.80;;;;;;6337145;22;20164;-87
2023/08/25 00:09:29;;;;;;;0.95;0.95;;;26.40;87.00;;;;;;6337125;22;20196;-84
2023/08/25 00:11:57;;;;;;;2.60;0.70;;;26.40;87.20;;;;;;6336184;22;20243;-84
2023/08/25 00:14:26;;;;;;;0.80;0.77;;;26.40;87.00;;;;;;6335113;22;20644;-85
2023/08/25 00:16:55;;;;;;;0.50;0.50;;;26.40;87.20;;;;;;6336909;22;20206;-85
2023/08/25 00:19:24;;;;;;;1.15;1.00;;;26.40;87.30;;;;;;6337183;22;20164;-87
2023/08/25 00:21:53;;;;;;;3.47;1.38;;;26.40;86.90;;;;;;6337999;22;20167;-84
2023/08/25 00:24:22;;;;;;;0.30;0.30;;;26.40;86.50;;;;;;6336649;22;20184;-84
2023/08/25 00:26:51;;;;;;;1.52;0.88;;;26.40;86.40;;;;;;6336418;22;20183;-86
2023/08/25 00:29:20;;;;;;;0.38;0.38;;;26.40;86.10;;;;;;6335449;22;20169;-85
2023/08/25 00:31:48;;;;;;;1.58;0.82;;;26.40;86.40;;;;;;6335315;22;20175;-86
2023/08/25 00:34:16;;;;;;;0.65;0.65;;;26.40;86.60;;;;;;6335473;22;20202;-86
2023/08/25 00:36:45;;;;;;;0.70;0.70;;;26.40;86.50;;;;;;6335565;22;20625;-85
2023/08/25 00:39:17;;;;;;;0.65;0.65;;;26.30;86.90;;;;;;6336620;22;20175;-87
2023/08/25 00:41:45;;;;;;;0.75;0.70;;;26.30;87.20;;;;;;6337011;22;20167;-86
2023/08/25 00:44:14;;;;;;;0.77;0.75;;;26.30;87.70;;;;;;6336817;22;20168;-86
2023/08/25 00:46:43;;;;;;;1.25;0.90;;;26.30;87.70;;;;;;6336529;22;20228;-85
2023/08/25 00:49:12;;;;;;;1.58;0.93;;;26.20;88.50;;;;;;6336617;22;20215;-86
2023/08/25 00:51:40;;;;;;;0.55;0.52;;;26.20;89.00;;;;;;6335503;22;20169;-85
2023/08/25 00:54:09;;;;;;;1.00;1.00;;;26.20;89.10;;;;;;6336344;22;20807;-88
2023/08/25 00:56:39;;;;;;;0.95;0.68;;;26.20;89.10;;;;;;6340107;22;20188;-87
2023/08/25 00:59:08;;;;;;;3.15;1.10;;;26.10;89.20;;;;;;6336502;22;20640;-87
2023/08/25 01:01:36;;;;;;;0.60;0.60;;;26.10;89.20;;;;;;6335874;22;20164;-87
2023/08/25 01:04:05;;;;;;;1.25;1.15;;;26.10;89.20;;;;;;6335918;22;20165;-86
2023/08/25 01:06:35;;;;;;;1.10;0.95;;;26.10;89.20;;;;;;6336342;22;20196;-85
2023/08/25 01:09:04;;;;;;;0.52;0.52;;;26.10;89.30;;;;;;6335516;22;20164;-85
2023/08/25 01:11:43;;;;;;;1.63;0.88;;;26.10;89.40;;;;;;6340248;22;20196;-86
2023/08/25 01:14:26;;;;;;;0.55;0.55;;;26.10;89.00;;;;;;6334713;22;20602;-86
2023/08/25 01:17:02;;;;;;;0.40;0.38;;;26.10;88.60;;;;;;6336286;22;20184;-86
2023/08/25 01:19:52;;;;;;;1.60;0.85;;;26.10;88.40;;;;;;6335776;22;20195;-86
2023/08/25 01:22:26;;;;;;;1.17;1.08;;;26.10;88.40;;;;;;6335124;22;20681;-85
2023/08/25 01:25:06;;;;;;;0.55;0.55;;;26.00;88.10;;;;;;6335775;22;20195;-86
2023/08/25 01:27:36;;;;;;;1.42;0.95;;;26.10;89.20;;;;;;6336211;22;20249;-85
2023/08/25 01:30:06;;;;;;;0.65;0.65;;;26.00;90.70;;;;;;6335536;22;20165;-86
2023/08/25 01:32:37;;;;;;;0.82;0.65;;;26.00;90.90;;;;;;6336427;22;20486;-86
2023/08/25 01:35:06;;;;;;;0.77;0.50;;;26.00;91.00;;;;;;6335643;22;20180;-86
2023/08/25 01:37:39;;;;;;;0.57;0.30;;;25.90;91.20;;;;;;6334492;22;20188;-86
2023/08/25 01:40:15;;;;;;;2.28;0.50;;;25.80;91.10;;;;;;6335841;22;20486;-87
2023/08/25 01:42:47;;;;;;;3.22;1.48;;;25.80;91.30;;;;;;6335863;22;20152;-86
2023/08/25 01:45:18;;;;;;;1.85;1.25;;;25.80;91.50;;;;;;6335483;22;20215;-87
2023/08/25 01:47:48;;;;;;;2.20;1.70;;;25.80;91.50;;;;;;6333490;22;20157;-87
2023/08/25 01:50:17;;;;;;;1.08;0.70;;;25.70;91.40;;;;;;6334361;22;20996;-86
2023/08/25 01:52:47;;;;;;;1.70;1.60;;;25.70;91.70;;;;;;6335234;22;20169;-86
2023/08/25 01:55:18;;;;;;;1.27;1.17;;;25.70;91.80;;;;;;6337304;22;20495;-85
2023/08/25 01:57:48;;;;;;;0.85;0.80;;;25.60;92.00;;;;;;6335833;22;20192;-86
2023/08/25 02:00:20;;;;;;;0.88;0.65;;;25.60;91.90;;;;;;6335820;22;20686;-86
2023/08/25 02:02:48;;;;;;;1.65;1.15;;;25.60;91.80;;;;;;6335731;22;20157;-87
2023/08/25 02:05:17;;;;;;;0.93;0.88;;;25.60;91.70;;;;;;6335328;22;20168;-86
2023/08/25 02:07:46;;;;;;;0.82;0.80;;;25.60;91.50;;;;;;6334619;22;20398;-85
2023/08/25 02:10:14;;;;;;;0.85;0.50;;;25.60;91.30;;;;;;6335940;22;20198;-85
2023/08/25 02:12:43;;;;;;;0.77;0.63;;;25.60;91.20;;;;;;6333876;22;20172;-85
2023/08/25 02:15:13;;;;;;;0.73;0.70;;;25.50;91.30;;;;;;6336381;22;20188;-85
2023/08/25 02:17:41;;;;;;;1.33;0.50;;;25.50;91.30;;;;;;6335133;22;20219;-85
2023/08/25 02:20:12;;;;;;;1.42;1.25;;;25.60;91.30;;;;;;6334841;22;20164;-87
2023/08/25 02:22:41;;;;;;;2.05;1.13;;;25.50;91.20;;;;;;6335272;22;20165;-87
2023/08/25 02:25:09;;;;;;;0.60;0.60;;;25.50;91.20;;;;;;6336278;22;20185;-87
2023/08/25 02:27:38;;;;;;;2.65;1.67;;;25.50;91.10;;;;;;6334109;22;20775;-84
2023/08/25 02:30:07;;;;;;;1.75;0.75;;;25.50;91.20;;;;;;6335074;22;20571;-86
2023/08/25 02:32:37;;;;;;;0.63;0.63;;;25.50;91.30;;;;;;6336401;22;20186;-85
2023/08/25 02:35:07;;;;;;;2.50;1.45;;;25.50;91.30;;;;;;6334409;22;20165;-86
2023/08/25 02:37:35;;;;;;;1.45;1.13;;;25.50;91.10;;;;;;6335484;22;20196;-85
2023/08/25 02:40:04;;;;;;;0.65;0.55;;;25.50;91.00;;;;;;6334621;22;20172;-87
2023/08/25 02:42:32;;;;;;;0.50;0.45;;;25.50;90.80;;;;;;6337218;22;20168;-85
2023/08/25 02:45:01;;;;;;;0.47;0.47;;;25.50;90.80;;;;;;6335994;22;20168;-87
2023/08/25 02:47:31;;;;;;;0.93;0.60;;;25.50;90.80;;;;;;6337900;22;20561;-86
2023/08/25 02:50:02;;;;;;;0.95;0.70;;;25.50;90.70;;;;;;6337227;22;20659;-86
2023/08/25 02:52:31;;;;;;;0.38;0.38;;;25.50;90.60;;;;;;6338167;22;20153;-86
2023/08/25 02:54:59;;;;;;;1.25;0.52;;;25.50;90.50;;;;;;6336812;22;20161;-85
2023/08/25 02:57:28;;;;;;;0.68;0.60;;;25.50;90.50;;;;;;6337576;22;20225;-87
2023/08/25 02:59:56;;;;;;;0.90;0.60;;;25.50;90.40;;;;;;6337640;22;20255;-87
2023/08/25 03:02:25;;;;;;;0.30;0.30;;;25.50;90.50;;;;;;6336302;22;20168;-85
2023/08/25 03:04:53;;;;;;;0.40;0.40;;;25.50;90.50;;;;;;6336405;22;20169;-86
2023/08/25 03:07:23;;;;;;;1.17;0.60;;;25.50;90.30;;;;;;6337795;22;20172;-85
2023/08/25 03:09:52;;;;;;;0.25;0.25;;;25.50;90.30;;;;;;6336528;22;20165;-86
2023/08/25 03:12:20;;;;;;;0.63;0.60;;;25.50;90.20;;;;;;6334565;22;20168;-85
2023/08/25 03:14:48;;;;;;;0.65;0.60;;;25.50;90.10;;;;;;6336702;22;20779;-86
2023/08/25 03:17:18;;;;;;;1.13;0.68;;;25.50;90.10;;;;;;6340355;22;20492;-85
2023/08/25 03:19:47;;;;;;;0.88;0.88;;;25.50;90.00;;;;;;6336618;22;20723;-85
2023/08/25 03:22:15;;;;;;;3.53;0.65;;;25.60;90.10;;;;;;6336544;22;20168;-85
2023/08/25 03:24:45;;;;;;;0.40;0.40;;;25.50;90.00;;;;;;6336344;22;20192;-85
2023/08/25 03:27:14;;;;;;;0.80;0.50;;;25.60;90.00;;;;;;6336649;22;20217;-87
2023/08/25 03:29:43;;;;;;;0.60;0.60;;;25.50;89.90;;;;;;6336089;22;20172;-85
2023/08/25 03:32:11;;;;;;;1.95;1.13;;;25.50;89.70;;;;;;6335333;22;20225;-86
2023/08/25 03:34:40;;;;;;;0.38;0.38;;;25.60;89.70;;;;;;6336754;22;20161;-86
2023/08/25 03:37:11;;;;;;;0.43;0.32;;;25.50;89.60;;;;;;6336699;22;20176;-87
2023/08/25 03:39:40;;;;;;;0.30;0.30;;;25.50;89.60;;;;;;6337110;22;20192;-86
2023/08/25 03:42:10;;;;;;;0.25;0.25;;;25.60;89.60;;;;;;6336197;22;20168;-87
2023/08/25 03:44:38;;;;;;;0.40;0.40;;;25.50;89.50;;;;;;6335087;22;20161;-87
2023/08/25 03:47:07;;;;;;;0.40;0.40;;;25.50;89.50;;;;;;6336994;22;20251;-85
2023/08/25 03:49:35;;;;;;;0.80;0.77;;;25.50;89.50;;;;;;6336171;22;20172;-86
2023/08/25 03:52:05;;;;;;;1.00;0.50;;;25.60;89.50;;;;;;6335774;22;20497;-87
2023/08/25 03:54:35;;;;;;;0.68;0.35;;;25.60;89.50;;;;;;6335364;22;20257;-85
2023/08/25 03:57:06;;;;;;;0.98;0.52;;;25.60;89.40;;;;;;6336874;22;20192;-86
2023/08/25 03:59:36;;;;;;;0.30;0.30;;;25.50;89.30;;;;;;6336461;22;20230;-87
2023/08/25 04:02:05;;;;;;;1.20;0.65;;;25.60;90.00;;;;;;6336093;22;20164;-87
2023/08/25 04:04:34;;;;;;;0.50;0.40;;;25.60;89.30;;;;;;6336861;22;20169;-86
2023/08/25 04:07:03;;;;;;;0.80;0.80;;;25.60;89.20;;;;;;6335900;22;20172;-87
2023/08/25 04:09:32;;;;;;;0.82;0.80;;;25.60;89.30;;;;;;6336777;22;20597;-87
2023/08/25 04:12:00;;;;;;;0.28;0.28;;;25.60;89.30;;;;;;6334764;22;20161;-86
2023/08/25 04:14:29;;;;;;;0.68;0.52;;;25.60;89.20;;;;;;6335513;22;20183;-85
2023/08/25 04:16:58;;;;;;;0.35;0.35;;;25.60;89.20;;;;;;6336847;22;20169;-85
2023/08/25 04:19:30;;;;;;;0.90;0.70;;;25.70;89.30;;;;;;6336320;22;20196;-86
2023/08/25 04:21:59;;;;;;;0.65;0.65;;;25.70;89.40;;;;;;6335703;22;20168;-86
2023/08/25 04:24:27;;;;;;;0.73;0.60;;;25.70;89.60;;;;;;6335536;22;20656;-86
2023/08/25 04:26:58;;;;;;;0.70;0.70;;;25.70;89.60;;;;;;6335603;22;20164;-84
2023/08/25 04:29:27;;;;;;;1.67;1.10;;;25.70;89.60;;;;;;6336920;22;20164;-85
2023/08/25 04:31:55;;;;;;;1.50;1.17;;;25.70;89.90;;;;;;6333101;22;20175;-85
2023/08/25 04:34:29;;;;;;;1.55;0.88;;;25.70;89.80;;;;;;6333823;22;20687;-86
2023/08/25 04:36:57;;;;;;;0.82;0.65;;;25.70;89.90;;;;;;6334535;22;20527;-88
2023/08/25 04:39:26;;;;;;;0.75;0.60;;;25.70;89.70;;;;;;6335259;22;20199;-86
2023/08/25 04:41:55;;;;;;;0.60;0.57;;;25.80;89.80;;;;;;6338426;22;20164;-86
2023/08/25 04:44:24;;;;;;;0.85;0.82;;;25.80;89.70;;;;;;6336824;22;20187;-85
2023/08/25 04:46:53;;;;;;;1.95;1.45;;;25.80;89.60;;;;;;6337113;22;20613;-87
2023/08/25 04:49:26;;;;;;;1.20;1.05;;;25.90;89.90;;;;;;6335343;22;20165;-86
2023/08/25 04:51:59;;;;;;;0.30;0.30;;;25.90;89.80;;;;;;6338332;22;20182;-87
2023/08/25 04:54:29;;;;;;;0.68;0.68;;;25.90;89.70;;;;;;6337104;22;20614;-87
2023/08/25 04:57:03;;;;;;;0.55;0.32;;;26.00;89.60;;;;;;6334768;22;20180;-87
2023/08/25 04:59:36;;;;;;;1.00;0.60;;;26.00;89.60;;;;;;6338371;22;20195;-87
2023/08/25 05:02:05;;;;;;;0.40;0.40;;;26.10;89.50;;;;;;6338870;22;20164;-86
2023/08/25 05:04:45;;;;;;;2.22;1.30;;;26.10;89.60;;;;;;6336781;22;20191;-88
2023/08/25 05:07:24;;;;;;;0.68;0.65;;;26.10;89.50;;;;;;6338615;22;20175;-86
2023/08/25 05:09:59;;;;;;;1.13;0.85;;;26.10;89.50;;;;;;6336911;22;20160;-86
2023/08/25 05:12:28;;;;;;;0.60;0.50;;;26.20;89.50;;;;;;6334302;22;20475;-86
2023/08/25 05:15:00;;;;;;;1.20;0.82;;;26.30;89.70;;;;;;6337845;22;20625;-87
2023/08/25 05:17:31;;;;;;;0.90;0.73;;;26.40;89.90;;;;;;6338071;22;20243;-88
2023/08/25 05:20:10;;;;;;;1.20;0.88;;;26.40;89.80;;;;;;6339387;22;20274;-86
2023/08/25 05:22:43;;;;;;;4.25;0.90;;;26.50;89.90;;;;;;6336139;22;20175;-85
2023/08/25 05:25:14;;;;;;;4.50;1.48;;;26.50;89.70;;;;;;6335432;22;20267;-87
2023/08/25 05:27:42;;;;;;;3.50;0.85;;;26.60;89.70;;;;;;6335356;22;20624;-87
2023/08/25 05:30:16;;;;;;;1.15;0.68;;;26.70;89.60;;;;;;6335827;22;20243;-87
2023/08/25 05:32:45;;;;;;;1.08;0.55;;;26.70;89.50;;;;;;6334236;22;20153;-86
2023/08/25 05:35:13;;;;;;;1.35;1.23;;;26.80;89.50;;;;;;6337060;22;20161;-86
2023/08/25 05:37:56;;;;;;;0.82;0.80;;;26.90;89.50;;;;;;6335562;22;20686;-84
2023/08/25 05:40:26;;;;;;;0.98;0.55;;;26.90;89.30;;;;;;6334449;22;20192;-88
2023/08/25 05:42:56;;;;;;;0.43;0.43;;;27.00;89.20;;;;;;6334991;22;20188;-88
2023/08/25 05:45:25;;;;;;;1.05;0.65;;;27.00;89.10;;;;;;6334847;22;20168;-88
2023/08/25 05:47:53;;;;;;;0.63;0.63;;;27.00;89.00;;;;;;6334892;22;20165;-84
2023/08/25 05:50:25;;;;;;;0.30;0.30;;;27.10;88.90;;;;;;6339068;22;20173;-87
2023/08/25 05:52:54;;;;;;;2.38;0.93;;;27.10;88.90;;;;;;6336433;22;20647;-85
2023/08/25 05:55:23;;;;;;;0.50;0.50;;;27.10;88.80;;;;;;6336115;22;20188;-87
2023/08/25 05:57:52;;;;;;;0.40;0.40;;;27.20;88.60;;;;;;6335675;22;20210;-84
2023/08/25 06:00:21;;;;;;;1.25;0.50;;;27.20;88.40;;;;;;6332838;22;20578;-86
2023/08/25 06:02:49;;;;;;;1.00;0.50;;;27.20;88.20;;;;;;6335930;22;20167;-85
2023/08/25 06:05:18;;;;;;;0.60;0.55;;;27.30;88.10;;;;;;6335572;22;20168;-84
2023/08/25 06:07:46;;;;;;;0.55;0.52;;;27.30;87.90;;;;;;6335745;22;20609;-85
2023/08/25 06:10:16;;;;;;;0.32;0.32;;;27.40;87.90;;;;;;6334691;22;20167;-85
2023/08/25 06:12:44;;;;;;;0.30;0.30;;;27.40;87.70;;;;;;6335597;22;20199;-86
2023/08/25 06:15:13;;;;;;;0.30;0.30;;;27.50;87.60;;;;;;6335065;22;20187;-86
2023/08/25 06:17:43;;;;;;;1.85;1.67;;;27.50;87.40;;;;;;6334942;22;20164;-85
2023/08/25 06:20:12;;;;;;;3.80;1.17;;;27.60;87.20;;;;;;6335386;22;20184;-85
2023/08/25 06:22:41;;;;;;;1.27;0.57;;;27.70;87.30;;;;;;6335973;22;20181;-84
2023/08/25 06:25:12;;;;;;;0.35;0.35;;;27.70;87.00;;;;;;6334272;22;20518;-86
2023/08/25 06:27:42;;;;;;;0.80;0.80;;;27.80;86.20;;;;;;6335311;22;20174;-86
2023/08/25 06:30:11;;;;;;;0.65;0.60;;;27.90;85.50;;;;;;6335088;22;20169;-85
2023/08/25 06:32:40;;;;;;;1.23;1.02;;;27.90;85.30;;;;;;6334094;22;20172;-86
2023/08/25 06:35:09;;;;;;;1.42;0.70;;;28.00;85.00;;;;;;6334155;22;20160;-86
2023/08/25 06:37:37;;;;;;;3.60;1.00;;;28.10;84.40;;;;;;6336815;22;20243;-86
2023/08/25 06:40:08;;;;;;;2.00;0.90;;;28.20;84.10;;;;;;6335446;22;20684;-86
2023/08/25 06:42:37;;;;;;;0.85;0.82;;;28.20;83.80;;;;;;6335929;22;20256;-86
2023/08/25 06:45:08;;;;;;;1.02;0.82;;;28.30;83.50;;;;;;6335355;22;20168;-85
2023/08/25 06:47:37;;;;;;;2.05;0.50;;;28.40;84.10;;;;;;6336099;22;20185;-86
2023/08/25 06:50:06;;;;;;;1.52;0.68;;;28.50;82.70;;;;;;6335586;22;20248;-86
2023/08/25 06:52:36;;;;;;;0.82;0.63;;;28.50;80.90;;;;;;6335544;22;20225;-86
2023/08/25 06:55:05;;;;;;;0.55;0.55;;;28.60;81.00;;;;;;6332717;22;20593;-86
2023/08/25 06:57:34;;;;;;;0.63;0.47;;;28.70;80.80;;;;;;6334750;22;20248;-83
2023/08/25 07:00:05;;;;;;;2.00;0.88;;;28.80;80.10;;;;;;6334314;22;20188;-86
2023/08/25 07:02:36;;;;;;;0.77;0.77;;;28.90;79.70;;;;;;6333253;22;20636;-84
2023/08/25 07:05:05;;;;;;;0.75;0.40;;;29.00;79.90;;;;;;6336174;22;20153;-86
2023/08/25 07:52:35;;;;;;;0.50;0.50;;;29.90;71.80;;;;;;6084303;22;20170;-84
2023/08/25 07:55:04;;;;;;;2.00;1.10;;;29.90;71.50;;;;;;6270496;22;20595;-84
2023/08/25 07:57:33;;;;;;;1.08;0.85;;;30.00;71.50;;;;;;6272738;22;20174;-82
2023/08/25 08:00:01;;;;;;;4.75;0.90;;;30.00;71.10;;;;;;6274574;22;20289;-85
2023/08/25 08:02:30;;;;;;;1.27;1.10;;;30.00;70.80;;;;;;6273147;22;20173;-83
2023/08/25 08:05:01;;;;;;;1.27;0.80;;;30.00;70.60;;;;;;6275116;22;20174;-85
2023/08/25 08:07:30;;;;;;;0.85;0.70;;;30.10;71.00;;;;;;6274975;22;20600;-85
2023/08/25 08:10:00;;;;;;;0.85;0.75;;;30.10;70.90;;;;;;6273927;22;20170;-83
2023/08/25 08:12:29;;;;;;;1.02;0.85;;;30.20;70.40;;;;;;6275469;22;20170;-83
2023/08/25 08:14:58;;;;;;;2.05;1.25;;;30.30;69.20;;;;;;6274335;22;20280;-85
2023/08/25 08:17:26;;;;;;;0.80;0.80;;;30.30;69.90;;;;;;6275062;22;20237;-83
2023/08/25 08:19:58;;;;;;;1.95;0.88;;;30.30;69.70;;;;;;6273792;22;20166;-84
2023/08/25 08:22:27;;;;;;;1.42;0.93;;;30.30;68.90;;;;;;6274191;22;20618;-85
2023/08/25 08:24:55;;;;;;;0.32;0.32;;;30.40;69.00;;;;;;6275523;22;20166;-85
2023/08/25 08:27:28;;;;;;;2.20;1.17;;;30.40;69.20;;;;;;6319341;22;20913;-83
2023/08/25 08:29:56;;;;;;;1.15;0.60;;;30.40;68.80;;;;;;6336416;22;20239;-84
2023/08/25 08:32:24;;;;;;;0.80;0.73;;;30.50;69.10;;;;;;6337270;22;20625;-84
2023/08/25 08:34:53;;;;;;;3.60;1.45;;;30.50;68.60;;;;;;6333626;22;20168;-83
2023/08/25 08:37:21;;;;;;;0.50;0.50;;;30.50;68.30;;;;;;6335628;22;20165;-83
2023/08/25 08:39:51;;;;;;;1.95;1.33;;;30.60;68.10;;;;;;6337171;22;20489;-83
2023/08/25 08:42:19;;;;;;;2.45;1.75;;;30.60;67.90;;;;;;6335204;22;20192;-84
2023/08/25 08:44:55;;;;;;;2.45;0.57;;;30.70;67.50;;;;;;6336749;22;20174;-88
2023/08/25 08:47:38;;;;;;;1.50;0.82;;;30.70;67.70;;;;;;6288016;22;20168;-84
2023/08/25 08:50:08;;;;;;;0.95;0.70;;;30.70;67.50;;;;;;6334445;22;20176;-85
2023/08/25 08:52:37;;;;;;;2.35;0.90;;;30.80;67.60;;;;;;6337356;22;20251;-83
2023/08/25 08:55:07;;;;;;;1.25;0.60;;;30.80;66.70;;;;;;6335574;22;20168;-84
2023/08/25 08:57:35;;;;;;;0.70;0.50;;;30.90;66.50;;;;;;6335935;22;20172;-83
2023/08/25 09:00:10;;;;;;;0.65;0.60;;;30.90;65.90;;;;;;6334875;22;20605;-84
2023/08/25 09:02:43;;;;;;;0.60;0.50;;;30.90;66.00;;;;;;6336507;22;20183;-83
2023/08/25 09:05:15;;;;;;;0.55;0.55;;;30.90;66.20;;;;;;6335009;22;20161;-84
2023/08/25 09:07:46;;;;;;;0.35;0.35;;;31.00;66.10;;;;;;6336859;22;20205;-84
2023/08/25 09:10:15;;;;;;;0.70;0.65;;;31.10;66.40;;;;;;6336123;22;20156;-84
2023/08/25 09:12:44;;;;;;;0.43;0.43;;;31.10;66.30;;;;;;6336645;22;20226;-83
2023/08/25 09:15:25;;;;;;;3.05;1.05;;;31.20;66.20;;;;;;6334406;22;20251;-85
2023/08/25 09:18:01;;;;;;;0.60;0.40;;;31.20;66.30;;;;;;6335875;22;20613;-83
2023/08/25 09:20:30;;;;;;;0.82;0.60;;;31.30;66.30;;;;;;6336292;22;20196;-84
2023/08/25 09:22:59;;;;;;;0.63;0.60;;;31.30;66.00;;;;;;6336103;22;20222;-85
2023/08/25 09:25:28;;;;;;;1.20;0.90;;;31.40;65.80;;;;;;6337050;22;20161;-84
2023/08/25 09:27:58;;;;;;;1.10;0.85;;;31.40;65.40;;;;;;6335123;22;20196;-83
2023/08/25 09:30:39;;;;;;;4.25;0.95;;;31.50;65.80;;;;;;6334222;22;20157;-81
2023/08/25 09:33:09;;;;;;;2.30;0.75;;;31.50;65.30;;;;;;6334883;22;20171;-83
2023/08/25 09:35:38;;;;;;;0.30;0.30;;;31.60;65.60;;;;;;6335679;22;20211;-83
2023/08/25 09:38:08;;;;;;;1.35;1.15;;;31.70;64.80;;;;;;6336797;22;20632;-89
2023/08/25 09:40:54;;;;;;;0.55;0.50;;;31.70;64.50;;;;;;6335071;22;20168;-84
2023/08/25 09:43:30;;;;;;;0.60;0.60;;;31.70;64.60;;;;;;6337015;22;20159;-87
2023/08/25 09:46:00;;;;;;;2.45;1.08;;;31.80;64.30;;;;;;6336213;22;20164;-85
2023/08/25 09:48:33;;;;;;;0.63;0.63;;;31.80;64.70;;;;;;6336003;22;20913;-86
2023/08/25 09:51:02;;;;;;;0.50;0.50;;;31.90;64.70;;;;;;6335074;22;20618;-86
2023/08/25 09:53:33;;;;;;;0.50;0.50;;;32.00;64.30;;;;;;6336571;22;20204;-85
2023/08/25 09:56:05;;;;;;;0.52;0.47;;;32.00;64.40;;;;;;6335818;22;20251;-89
2023/08/25 09:58:35;;;;;;;0.60;0.60;;;32.00;63.50;;;;;;6337261;22;20165;-86
2023/08/25 10:01:06;;;;;;;0.40;0.40;;;32.10;62.90;;;;;;6335644;22;20192;-91
2023/08/25 10:03:35;;;;;;;1.13;0.82;;;32.20;62.60;;;;;;6337218;22;20471;-86
2023/08/25 10:06:19;;;;;;;3.22;1.50;;;32.20;62.50;;;;;;6334587;22;20226;-84
2023/08/25 10:11:48;;;;;;;1.70;0.95;;;32.30;62.20;;;;;;6321909;22;20175;-86
2023/08/25 10:14:27;;;;;;;0.60;0.55;;;32.30;62.20;;;;;;6334769;22;20229;-87
2023/08/25 10:17:01;;;;;;;0.35;0.35;;;32.40;62.10;;;;;;6335431;22;20217;-85
2023/08/25 10:19:50;;;;;;;0.95;0.47;;;32.40;62.20;;;;;;6336177;22;20609;-86
2023/08/25 10:22:22;;;;;;;0.63;0.63;;;32.50;62.40;;;;;;6335581;22;20192;-85
2023/08/25 10:25:03;;;;;;;0.77;0.77;;;32.60;62.30;;;;;;6336570;22;20213;-85
2023/08/25 10:27:36;;;;;;;0.90;0.73;;;32.60;62.40;;;;;;6336127;22;20279;-86
2023/08/25 10:30:21;;;;;;;1.42;1.33;;;32.60;61.80;;;;;;6336491;22;20215;-87
2023/08/25 10:33:04;;;;;;;0.65;0.63;;;32.70;61.40;;;;;;6334873;22;20172;-84
2023/08/25 10:35:44;;;;;;;1.98;1.23;;;32.80;61.40;;;;;;6336164;22;20601;-86
2023/08/25 10:38:40;;;;;;;1.23;0.70;;;32.80;61.20;;;;;;6336497;22;20154;-85
2023/08/25 10:41:20;;;;;;;1.95;0.73;;;32.90;61.50;;;;;;6334555;22;20172;-84
2023/08/25 10:44:01;;;;;;;0.63;0.60;;;32.90;61.30;;;;;;6335769;22;20183;-85
2023/08/25 10:46:33;;;;;;;0.93;0.70;;;32.90;61.20;;;;;;6335631;22;20164;-84
2023/08/25 10:49:17;;;;;;;0.70;0.70;;;33.10;61.70;;;;;;6336748;22;20695;-87
2023/08/25 10:51:46;;;;;;;3.08;0.85;;;33.10;61.80;;;;;;6336943;22;20168;-87
2023/08/25 10:54:19;;;;;;;0.80;0.63;;;33.10;61.30;;;;;;6335540;22;20273;-90
2023/08/25 10:56:52;;;;;;;0.70;0.70;;;33.20;61.10;;;;;;6335257;22;20571;-87
2023/08/25 10:59:22;;;;;;;0.80;0.80;;;33.30;61.20;;;;;;6335066;22;20659;-86
2023/08/25 11:01:59;;;;;;;0.30;0.30;;;33.30;60.90;;;;;;6334104;22;20521;-86
2023/08/25 11:04:31;;;;;;;1.30;1.20;;;33.40;60.90;;;;;;6338926;22;20160;-85
2023/08/25 11:07:06;;;;;;;1.00;0.60;;;33.40;60.30;;;;;;6337126;22;20149;-89
2023/08/25 11:09:38;;;;;;;2.05;1.33;;;33.50;61.60;;;;;;6336245;22;20689;-86
2023/08/25 11:12:08;;;;;;;0.75;0.60;;;33.50;59.90;;;;;;6335997;22;20212;-85
2023/08/25 11:14:39;;;;;;;0.30;0.30;;;33.50;59.80;;;;;;6335871;22;20171;-85
2023/08/25 11:17:09;;;;;;;0.93;0.93;;;33.60;60.10;;;;;;6337914;22;20153;-85
2023/08/25 11:19:39;;;;;;;1.75;1.65;;;33.60;60.80;;;;;;6335786;22;20207;-85
2023/08/25 11:22:11;;;;;;;2.42;0.65;;;33.80;59.80;;;;;;6337426;22;20230;-85
2023/08/25 11:24:41;;;;;;;0.90;0.75;;;33.80;59.90;;;;;;6334498;22;20155;-83
2023/08/25 11:27:10;;;;;;;1.10;1.00;;;33.80;59.80;;;;;;6337497;22;20198;-84
2023/08/25 11:29:44;;;;;;;0.47;0.47;;;33.90;59.60;;;;;;6337035;22;20247;-85
2023/08/25 11:32:13;;;;;;;0.63;0.50;;;33.90;59.70;;;;;;6337124;22;20163;-83
2023/08/25 11:34:47;;;;;;;0.80;0.80;;;34.00;59.40;;;;;;6337958;22;20171;-86
2023/08/25 11:37:16;;;;;;;0.65;0.55;;;34.00;59.70;;;;;;6335351;22;20156;-86
2023/08/25 11:39:45;;;;;;;0.95;0.95;;;34.10;59.00;;;;;;6338268;22;20182;-90
2023/08/25 11:42:14;;;;;;;1.15;0.88;;;34.10;58.90;;;;;;6335291;22;20245;-85
2023/08/25 11:44:43;;;;;;;0.77;0.65;;;34.10;58.10;;;;;;6336176;22;20625;-84
2023/08/25 11:47:11;;;;;;;0.93;0.85;;;34.10;57.20;;;;;;6335912;22;20168;-84
2023/08/25 11:49:42;;;;;;;1.10;1.00;;;34.10;56.80;;;;;;6336832;22;20187;-85
2023/08/25 11:52:11;;;;;;;1.52;1.10;;;34.20;57.10;;;;;;6335979;22;20239;-87
2023/08/25 11:54:46;;;;;;;0.77;0.75;;;34.30;57.40;;;;;;6336234;22;20243;-86
2023/08/25 11:57:15;;;;;;;1.17;1.05;;;34.30;57.20;;;;;;6337309;22;20527;-85
2023/08/25 11:59:44;;;;;;;1.13;0.85;;;34.30;56.50;;;;;;6336528;22;20255;-86
2023/08/25 12:02:16;;;;;;;1.60;1.17;;;34.30;57.10;;;;;;6336483;22;20649;-85
2023/08/25 12:04:55;;;;;;;1.40;1.25;;;34.30;57.10;;;;;;6335112;22;20598;-85
2023/08/25 12:07:28;;;;;;;1.30;1.05;;;34.30;57.10;;;;;;6337934;22;20152;-85
2023/08/25 12:10:00;;;;;;;1.70;1.13;;;34.40;57.10;;;;;;6336667;22;20164;-86
2023/08/25 12:12:32;;;;;;;0.70;0.70;;;34.40;56.00;;;;;;6336235;22;20214;-86
2023/08/25 12:15:10;;;;;;;1.38;1.23;;;34.40;56.50;;;;;;6335139;22;20152;-85
2023/08/25 12:17:39;;;;;;;0.47;0.47;;;34.50;56.80;;;;;;6336792;22;20223;-85
2023/08/25 12:20:15;;;;;;;1.85;1.00;;;34.60;56.80;;;;;;6336548;22;20175;-85
2023/08/25 12:22:54;;;;;;;1.17;1.08;;;34.60;57.20;;;;;;6337552;22;20180;-84
2023/08/25 12:25:22;;;;;;;3.63;1.45;;;34.70;56.60;;;;;;6336713;22;20165;-84
2023/08/25 12:27:52;;;;;;;0.40;0.40;;;34.70;56.30;;;;;;6336372;22;20194;-84
2023/08/25 12:30:21;;;;;;;1.10;1.00;;;34.70;56.00;;;;;;6335852;22;20165;-85
2023/08/25 12:32:49;;;;;;;1.20;0.82;;;34.80;56.00;;;;;;6337385;22;20168;-84
2023/08/25 12:35:22;;;;;;;0.50;0.50;;;34.80;55.90;;;;;;6334944;22;20168;-83
2023/08/25 12:37:51;;;;;;;0.68;0.55;;;34.80;55.50;;;;;;6336355;22;20624;-84
2023/08/25 12:40:20;;;;;;;0.50;0.50;;;34.90;55.40;;;;;;6335682;22;20164;-85
2023/08/25 12:42:51;;;;;;;9.70;1.35;;;34.90;55.50;;;;;;6335046;22;20238;-82
2023/08/25 12:45:21;;;;;;;0.60;0.60;;;34.90;54.70;;;;;;6335180;22;20211;-84
2023/08/25 12:47:52;;;;;;;0.73;0.65;;;34.90;54.60;;;;;;6336155;22;20263;-86
2023/08/25 12:50:23;;;;;;;2.17;1.10;;;34.90;54.70;;;;;;6335637;22;20597;-86
2023/08/25 12:52:52;;;;;;;0.47;0.47;;;35.00;54.80;;;;;;6333602;22;20236;-86
2023/08/25 12:55:21;;;;;;;0.77;0.50;;;35.00;54.70;;;;;;6335286;22;20609;-85
2023/08/25 12:57:50;;;;;;;0.63;0.50;;;35.00;54.40;;;;;;6336737;22;20241;-89
2023/08/25 13:00:20;;;;;;;1.60;1.17;;;35.00;54.40;;;;;;6334381;22;20168;-89
2023/08/25 13:02:48;;;;;;;0.50;0.50;;;35.10;54.50;;;;;;6335885;22;20188;-87
2023/08/25 13:05:23;;;;;;;0.85;0.65;;;35.10;54.20;;;;;;6336422;22;20164;-86
2023/08/25 13:07:52;;;;;;;1.63;1.30;;;35.10;53.70;;;;;;6337066;22;20210;-89
2023/08/25 13:10:23;;;;;;;1.33;0.70;;;35.10;53.20;;;;;;6335400;22;20168;-86
2023/08/25 13:12:52;;;;;;;0.40;0.30;;;35.10;53.10;;;;;;6338190;22;20176;-87
2023/08/25 13:15:20;;;;;;;0.93;0.77;;;35.10;53.10;;;;;;6332696;22;20241;-84
2023/08/25 13:17:49;;;;;;;4.55;1.50;;;35.20;53.10;;;;;;6335160;22;20248;-84
2023/08/25 13:20:19;;;;;;;0.82;0.60;;;35.20;52.80;;;;;;6335283;22;20532;-86
2023/08/25 13:22:49;;;;;;;0.50;0.50;;;35.20;53.20;;;;;;6336610;22;20168;-86
2023/08/25 13:25:25;;;;;;;2.35;0.90;;;35.20;53.20;;;;;;6335498;22;20171;-84
2023/08/25 13:27:54;;;;;;;1.33;0.80;;;35.30;53.60;;;;;;6337097;22;20194;-84
2023/08/25 13:30:22;;;;;;;0.40;0.40;;;35.40;53.70;;;;;;6336385;22;20200;-85
2023/08/25 13:32:51;;;;;;;1.95;1.15;;;35.40;53.70;;;;;;6336006;22;20171;-86
2023/08/25 13:35:22;;;;;;;0.60;0.60;;;35.40;53.40;;;;;;6332892;22;20609;-85
2023/08/25 13:37:52;;;;;;;1.20;1.05;;;35.40;52.90;;;;;;6334497;22;20191;-85
2023/08/25 13:40:21;;;;;;;0.60;0.60;;;35.40;53.00;;;;;;6335299;22;20661;-85
2023/08/25 13:42:49;;;;;;;0.65;0.65;;;35.50;52.60;;;;;;6337111;22;20164;-85
2023/08/25 13:45:18;;;;;;;0.75;0.40;;;35.60;52.40;;;;;;6334793;22;20168;-84
2023/08/25 13:47:47;;;;;;;1.73;1.23;;;35.60;52.10;;;;;;6335149;22;20168;-83
2023/08/25 13:50:15;;;;;;;0.88;0.57;;;35.70;51.80;;;;;;6333115;22;20640;-85
2023/08/25 13:52:44;;;;;;;0.47;0.47;;;35.60;51.90;;;;;;6334433;22;20165;-85
2023/08/25 13:55:14;;;;;;;0.47;0.40;;;35.50;52.10;;;;;;6333726;22;20178;-84